Bujumbura, Bujumbura International Airport (HBBA)

NameBujumbura International Airport
CityBujumbura
CountryBurundi
ICAOHBBA
IATABJM
Altitude787 m
CoordinatesGoogle Map
Live Air TrafficLiveATC.net
METARHBBA 131100Z 18007KT 9999 FEW020TCU BKN100 31/22 Q1012 NOSIG
2017-12-13 11:00:00 Wind: South (180°) 3.6 m/s - Visibility: > 10000 m - Temperature: 31 °C - Dew point: 22 °C - Humidity: 58.7% - Pressure: 1012 hPa
Statistics

The table below shows the detailed information of all flights to/from Bujumbura, Bujumbura International Airport (HBBA).